Terminal Aerodrome Forecast
Issued by NWS Portland, OR

Home | Current Version | Previous Version | Text Only | Print | Product List | Glossary On
Versions: 1 2 3 4 5 6 7 8 9 10 11 12 13 14 15 16 17 18 19 20 21 22 23 24 25 26 27 28 29 30 31 32 33 34 35 36 37 38 39 40
000
FTUS46 KPQR 241730
TAFEUG
TAF
KEUG 241730Z 2418/2518 21007KT P6SM FEW120 OVC250
     FM242300 19010KT P6SM BKN050 OVC120
     FM250400 19012KT 4SM -RA BR BKN015 OVC025
     FM251100 19007KT 2SM -RA BR OVC007
     FM251500 19007KT 2SM -SHRA BR SCT004 OVC007=

USA.gov is the U.S. government's official web portal to all federal, state and local government web resources and services.